createdAt,value
2023-06-30T00:01:38.612Z,3.00
2023-06-30T00:04:06.344Z,3.20
2023-06-30T00:06:34.489Z,3.33
2023-06-30T00:09:01.864Z,2.65
2023-06-30T00:11:28.927Z,2.78
2023-06-30T00:13:56.647Z,2.55
2023-06-30T00:16:23.983Z,3.47
2023-06-30T00:18:51.144Z,2.92
2023-06-30T00:21:18.174Z,3.17
2023-06-30T00:23:45.370Z,3.00
2023-06-30T00:26:12.391Z,2.88
2023-06-30T00:28:39.651Z,3.55
2023-06-30T00:31:07.778Z,2.83
2023-06-30T00:33:34.766Z,3.05
2023-06-30T00:36:01.894Z,3.47
2023-06-30T00:38:29.327Z,3.03
2023-06-30T00:40:56.656Z,3.38
2023-06-30T00:43:23.908Z,3.03
2023-06-30T00:45:51.013Z,3.45
2023-06-30T00:48:18.851Z,3.70
2023-06-30T00:50:47.630Z,3.30
2023-06-30T00:53:15.239Z,3.05
2023-06-30T00:55:42.339Z,3.00
2023-06-30T00:58:09.908Z,3.28
2023-06-30T01:00:37.676Z,3.00
2023-06-30T01:03:21.099Z,3.45
2023-06-30T01:05:58.805Z,3.65
2023-06-30T01:09:02.471Z,4.18
2023-06-30T01:11:31.526Z,3.50
2023-06-30T01:13:59.954Z,3.72
2023-06-30T01:16:30.737Z,3.70
2023-06-30T01:18:59.899Z,3.70
2023-06-30T01:21:30.054Z,3.95
2023-06-30T01:24:11.018Z,3.78
2023-06-30T01:26:38.965Z,4.10
2023-06-30T01:29:08.112Z,3.90
2023-06-30T01:31:35.340Z,4.57
2023-06-30T01:34:03.099Z,3.72
2023-06-30T01:36:30.217Z,4.03
2023-06-30T01:38:57.423Z,3.97
2023-06-30T01:41:24.582Z,4.13
2023-06-30T01:43:52.450Z,3.90
2023-06-30T01:46:20.025Z,3.67
2023-06-30T01:48:47.727Z,3.75
2023-06-30T01:51:16.017Z,4.65
2023-06-30T01:53:43.136Z,3.83
2023-06-30T01:56:10.099Z,3.95
2023-06-30T01:58:37.244Z,3.50
2023-06-30T02:01:04.552Z,4.07
2023-06-30T02:03:31.697Z,4.47
2023-06-30T02:05:58.767Z,5.13
2023-06-30T02:08:25.764Z,4.57
2023-06-30T02:10:52.651Z,4.22
2023-06-30T02:13:19.579Z,4.20
2023-06-30T02:15:47.014Z,4.68
2023-06-30T02:18:16.928Z,4.32
2023-06-30T02:20:44.021Z,4.75
2023-06-30T02:23:10.980Z,4.30
2023-06-30T02:25:38.100Z,4.72
2023-06-30T02:28:05.291Z,4.63
2023-06-30T02:30:32.419Z,4.50
2023-06-30T02:32:59.926Z,4.90
2023-06-30T02:35:27.056Z,4.65
2023-06-30T02:37:54.222Z,5.25
2023-06-30T02:40:21.216Z,4.30
2023-06-30T02:42:48.482Z,4.25
2023-06-30T02:45:16.051Z,5.10
2023-06-30T02:47:43.193Z,5.45
2023-06-30T02:50:11.655Z,5.32
2023-06-30T02:52:38.677Z,5.55
2023-06-30T02:55:05.984Z,5.15
2023-06-30T02:57:32.892Z,4.63
2023-06-30T02:59:59.917Z,5.30
2023-06-30T03:02:27.160Z,5.63
2023-06-30T03:04:57.204Z,4.90
2023-06-30T03:07:24.492Z,5.07
2023-06-30T03:09:51.571Z,5.05
2023-06-30T03:12:18.489Z,4.68
2023-06-30T03:14:45.630Z,4.95
2023-06-30T03:17:12.775Z,5.13
2023-06-30T03:19:40.090Z,5.72
2023-06-30T03:22:07.202Z,6.33
2023-06-30T03:24:34.145Z,5.25
2023-06-30T03:27:01.185Z,5.22
2023-06-30T03:29:28.614Z,5.22
2023-06-30T03:31:55.632Z,5.68
2023-06-30T03:34:22.640Z,5.53
2023-06-30T03:36:50.478Z,5.38
2023-06-30T03:39:19.044Z,4.85
2023-06-30T03:41:46.316Z,5.00
2023-06-30T03:44:15.013Z,5.00
2023-06-30T03:46:42.502Z,5.18
2023-06-30T03:49:09.492Z,5.90
2023-06-30T03:51:36.532Z,5.30
2023-06-30T03:54:03.733Z,5.57
2023-06-30T03:56:30.606Z,5.97
2023-06-30T03:58:57.807Z,5.20
2023-06-30T04:01:24.727Z,5.18
2023-06-30T04:03:53.222Z,5.63
2023-06-30T04:06:20.472Z,5.45
2023-06-30T04:08:47.488Z,5.38
2023-06-30T04:11:14.449Z,5.45
2023-06-30T04:13:41.356Z,5.47
2023-06-30T04:16:08.898Z,5.60
2023-06-30T04:18:36.046Z,5.25
2023-06-30T04:21:03.189Z,5.90
2023-06-30T04:23:30.261Z,5.53
2023-06-30T04:25:58.034Z,6.13
2023-06-30T04:28:25.489Z,5.53
2023-06-30T04:30:52.568Z,6.50
2023-06-30T04:33:19.721Z,6.70
2023-06-30T04:35:46.882Z,7.28
2023-06-30T04:38:14.449Z,7.80
2023-06-30T04:40:41.412Z,9.23
2023-06-30T04:43:13.606Z,9.20
2023-06-30T04:45:40.985Z,8.75
2023-06-30T04:48:08.820Z,7.97
2023-06-30T04:50:37.082Z,9.23
2023-06-30T04:53:04.169Z,9.75
2023-06-30T04:55:31.354Z,9.43
2023-06-30T04:57:59.916Z,9.20
2023-06-30T05:00:28.020Z,9.02
2023-06-30T05:02:55.386Z,8.80
2023-06-30T05:05:22.520Z,7.82
2023-06-30T05:07:49.784Z,8.75
2023-06-30T05:10:17.042Z,9.05
2023-06-30T05:12:43.953Z,7.80
2023-06-30T05:15:11.058Z,8.32
2023-06-30T05:17:38.437Z,8.07
2023-06-30T05:20:09.321Z,7.60
2023-06-30T05:22:36.871Z,7.90
2023-06-30T05:25:04.728Z,8.20
2023-06-30T05:27:32.104Z,8.60
2023-06-30T05:29:59.086Z,7.90
2023-06-30T05:32:26.552Z,7.07
2023-06-30T05:34:54.050Z,8.30
2023-06-30T05:37:21.041Z,7.85
2023-06-30T05:39:47.959Z,7.65
2023-06-30T05:42:15.054Z,8.02
2023-06-30T05:44:41.965Z,9.27
2023-06-30T05:47:09.196Z,8.90
2023-06-30T05:49:39.691Z,9.15
2023-06-30T05:52:08.452Z,9.73
2023-06-30T05:54:35.617Z,9.43
2023-06-30T05:57:02.699Z,8.65
2023-06-30T05:59:31.800Z,8.30
2023-06-30T06:01:58.835Z,9.50
2023-06-30T06:04:28.676Z,9.70
2023-06-30T06:06:56.106Z,9.18
2023-06-30T06:09:23.729Z,10.18
2023-06-30T06:11:50.980Z,9.77
2023-06-30T06:14:18.951Z,10.95
2023-06-30T06:16:47.069Z,10.25
2023-06-30T06:19:16.308Z,10.27
2023-06-30T06:21:43.610Z,10.15
2023-06-30T06:24:10.567Z,10.82
2023-06-30T06:26:37.574Z,10.85
2023-06-30T06:29:04.835Z,11.55
2023-06-30T06:31:31.860Z,11.65
2023-06-30T06:33:58.884Z,12.32
2023-06-30T06:36:26.119Z,13.23
2023-06-30T06:38:53.341Z,14.25
2023-06-30T06:41:20.204Z,14.20
2023-06-30T06:43:47.193Z,14.85
2023-06-30T06:46:14.338Z,15.48
2023-06-30T06:48:41.562Z,16.58
2023-06-30T06:51:08.976Z,16.13
2023-06-30T06:53:36.450Z,15.60
2023-06-30T06:56:05.033Z,14.88
2023-06-30T06:58:42.302Z,15.20
2023-06-30T07:01:11.469Z,13.95
2023-06-30T07:03:39.096Z,14.63
2023-06-30T07:06:09.338Z,13.98
2023-06-30T07:08:37.226Z,14.43
2023-06-30T07:11:05.600Z,13.95
2023-06-30T07:13:32.683Z,13.35
2023-06-30T07:16:00.508Z,12.35
2023-06-30T07:18:27.756Z,13.13
2023-06-30T07:20:55.955Z,13.15
2023-06-30T07:23:26.452Z,15.52
2023-06-30T07:25:54.223Z,14.75
2023-06-30T07:28:21.276Z,15.00
2023-06-30T07:30:48.702Z,14.65
2023-06-30T07:33:15.668Z,13.73
2023-06-30T07:35:42.725Z,15.73
2023-06-30T07:38:09.854Z,13.95
2023-06-30T07:43:06.659Z,15.00
2023-06-30T07:45:34.032Z,15.10
2023-06-30T07:48:01.463Z,14.77
2023-06-30T07:50:29.473Z,16.08
2023-06-30T07:52:56.369Z,19.13
2023-06-30T07:55:24.261Z,19.88
2023-06-30T07:57:52.584Z,22.02
2023-06-30T08:00:20.084Z,21.02
2023-06-30T08:02:48.135Z,18.65
2023-06-30T08:05:15.777Z,15.70
2023-06-30T08:07:50.342Z,13.13
2023-06-30T08:10:19.655Z,9.98
2023-06-30T08:12:47.160Z,8.82
2023-06-30T08:15:14.502Z,7.88
2023-06-30T08:17:52.242Z,8.68
2023-06-30T08:20:24.815Z,6.85
2023-06-30T08:22:52.424Z,6.20
2023-06-30T08:25:26.507Z,5.78
2023-06-30T08:27:53.903Z,5.55
2023-06-30T08:30:24.190Z,5.18
2023-06-30T08:32:52.584Z,5.68
2023-06-30T08:35:19.787Z,5.38
2023-06-30T08:37:50.049Z,5.78
2023-06-30T08:40:26.181Z,5.07
2023-06-30T08:42:54.717Z,4.93
2023-06-30T08:45:26.470Z,5.45
2023-06-30T08:47:56.598Z,4.68
2023-06-30T08:50:24.556Z,3.13
2023-06-30T08:52:53.137Z,3.67
2023-06-30T08:55:22.541Z,3.70
2023-06-30T08:57:50.496Z,3.45
2023-06-30T09:00:18.409Z,2.42
2023-06-30T09:02:46.022Z,2.60
2023-06-30T09:05:13.788Z,3.28
2023-06-30T09:07:47.017Z,2.08
2023-06-30T09:10:14.380Z,2.60
2023-06-30T09:12:44.482Z,2.28
2023-06-30T09:15:12.037Z,2.15
2023-06-30T09:17:39.775Z,2.92
2023-06-30T09:20:07.869Z,2.85
2023-06-30T09:22:55.223Z,2.80
2023-06-30T09:25:28.602Z,2.60
2023-06-30T09:27:57.021Z,2.95
2023-06-30T09:30:37.856Z,3.10
2023-06-30T09:33:06.415Z,3.53
2023-06-30T09:35:41.383Z,3.25
2023-06-30T09:38:16.308Z,3.00
2023-06-30T09:40:44.914Z,3.65
2023-06-30T09:43:22.866Z,2.80
2023-06-30T09:46:01.345Z,3.22
2023-06-30T09:48:40.059Z,3.28
2023-06-30T09:51:08.732Z,3.28
2023-06-30T09:53:39.507Z,2.50
2023-06-30T09:56:07.779Z,2.85
2023-06-30T09:58:37.186Z,2.60
2023-06-30T10:01:04.434Z,2.30
2023-06-30T10:03:31.721Z,2.58
2023-06-30T10:05:59.154Z,2.03
2023-06-30T10:08:28.127Z,3.20
2023-06-30T10:10:55.730Z,2.25
2023-06-30T10:13:23.348Z,2.25
2023-06-30T10:15:52.175Z,2.13
2023-06-30T10:18:20.807Z,2.22
2023-06-30T10:20:50.255Z,1.90
2023-06-30T10:23:24.049Z,1.70
2023-06-30T10:25:52.397Z,2.05
2023-06-30T10:28:20.465Z,1.75
2023-06-30T10:30:51.973Z,2.13
2023-06-30T10:33:19.221Z,2.13
2023-06-30T10:35:47.332Z,1.50
2023-06-30T10:38:15.251Z,1.40
2023-06-30T10:40:42.525Z,1.58
2023-06-30T10:43:11.483Z,1.30
2023-06-30T10:46:05.237Z,1.10
2023-06-30T10:48:32.281Z,1.55
2023-06-30T10:50:59.171Z,1.35
2023-06-30T10:53:28.269Z,1.20
2023-06-30T10:55:58.608Z,1.25
2023-06-30T10:58:28.272Z,1.80
2023-06-30T11:01:07.774Z,1.38
2023-06-30T11:03:56.753Z,1.52
2023-06-30T11:06:24.650Z,1.67
2023-06-30T11:09:12.436Z,1.95
2023-06-30T11:11:52.931Z,1.90
2023-06-30T11:14:33.482Z,2.10
2023-06-30T11:17:04.982Z,1.83
2023-06-30T11:19:32.366Z,1.27
2023-06-30T11:22:26.355Z,1.50
2023-06-30T11:24:54.023Z,1.67
2023-06-30T11:27:21.721Z,1.92
2023-06-30T11:29:55.710Z,1.85
2023-06-30T11:32:30.420Z,1.50
2023-06-30T11:35:01.225Z,1.40
2023-06-30T11:37:28.631Z,1.20
2023-06-30T11:39:58.034Z,1.63
2023-06-30T11:42:25.918Z,1.42
2023-06-30T11:44:53.134Z,1.20
2023-06-30T11:47:21.532Z,1.52
2023-06-30T11:49:49.635Z,1.60
2023-06-30T11:52:20.152Z,1.60
2023-06-30T11:54:47.410Z,1.55
2023-06-30T11:57:14.832Z,1.45
2023-06-30T11:59:42.675Z,1.30
2023-06-30T12:02:13.743Z,1.30
2023-06-30T12:04:47.779Z,2.17
2023-06-30T12:07:15.793Z,1.38
2023-06-30T12:09:43.115Z,1.65
2023-06-30T12:12:10.873Z,1.50
2023-06-30T12:14:43.479Z,1.60
2023-06-30T12:17:11.332Z,1.65
2023-06-30T12:19:39.007Z,1.25
2023-06-30T12:22:08.338Z,1.48
2023-06-30T12:24:36.482Z,1.40
2023-06-30T12:27:09.256Z,1.73
2023-06-30T12:29:37.592Z,1.30
2023-06-30T12:32:17.629Z,1.50
2023-06-30T12:34:47.136Z,1.10
2023-06-30T12:37:19.231Z,1.70
2023-06-30T12:39:46.379Z,1.23
2023-06-30T12:42:13.586Z,1.48
2023-06-30T12:44:41.174Z,1.15
2023-06-30T12:47:09.270Z,1.60
2023-06-30T12:49:39.550Z,1.10
2023-06-30T12:52:07.302Z,1.17
2023-06-30T12:54:34.276Z,1.25
2023-06-30T12:57:01.717Z,1.10
2023-06-30T12:59:28.757Z,1.65
2023-06-30T13:01:56.081Z,1.42
2023-06-30T13:04:23.168Z,1.27
2023-06-30T13:06:50.196Z,1.45
2023-06-30T13:09:17.647Z,1.52
2023-06-30T13:11:45.573Z,1.00
2023-06-30T13:14:14.565Z,1.42
2023-06-30T13:16:41.824Z,1.30
2023-06-30T13:19:09.018Z,1.15
2023-06-30T13:21:35.944Z,1.08
2023-06-30T13:24:02.793Z,1.30
2023-06-30T13:26:29.841Z,1.35
2023-06-30T13:28:56.805Z,1.30
2023-06-30T13:31:23.987Z,1.40
2023-06-30T13:33:51.396Z,1.55
2023-06-30T13:36:18.884Z,1.33
2023-06-30T13:38:47.718Z,1.33
2023-06-30T13:41:15.073Z,1.30
2023-06-30T13:43:42.278Z,1.30
2023-06-30T13:46:09.744Z,1.25
2023-06-30T13:48:39.487Z,1.17
2023-06-30T13:51:06.633Z,0.98
2023-06-30T13:53:33.595Z,1.50
2023-06-30T13:56:00.814Z,1.45
2023-06-30T13:58:27.842Z,1.15
2023-06-30T14:00:54.911Z,1.10
2023-06-30T14:03:22.085Z,1.38
2023-06-30T14:05:53.579Z,0.90
2023-06-30T14:08:21.980Z,1.30
2023-06-30T14:10:49.513Z,1.00
2023-06-30T14:13:16.694Z,1.52
2023-06-30T14:15:43.864Z,1.60
2023-06-30T14:18:11.109Z,1.00
2023-06-30T14:20:38.102Z,1.38
2023-06-30T14:23:05.141Z,1.17
2023-06-30T14:25:32.180Z,1.10
2023-06-30T14:27:59.071Z,1.40
2023-06-30T14:30:29.704Z,1.10
2023-06-30T14:32:56.955Z,1.25
2023-06-30T14:35:24.122Z,1.20
2023-06-30T14:37:51.166Z,1.30
2023-06-30T14:40:18.359Z,0.90
2023-06-30T14:42:45.665Z,1.10
2023-06-30T14:45:13.135Z,1.13
2023-06-30T14:47:41.750Z,1.27
2023-06-30T14:50:09.409Z,1.50
2023-06-30T14:52:36.541Z,1.20
2023-06-30T14:55:05.576Z,1.27
2023-06-30T14:57:32.544Z,1.42
2023-06-30T14:59:59.582Z,1.27
2023-06-30T15:02:26.650Z,1.27
2023-06-30T15:04:54.008Z,0.98
2023-06-30T15:07:21.806Z,1.23
2023-06-30T15:09:48.956Z,1.10
2023-06-30T15:12:16.426Z,1.05
2023-06-30T15:14:46.099Z,1.13
2023-06-30T15:17:12.967Z,1.17
2023-06-30T15:19:39.985Z,1.10
2023-06-30T15:22:07.167Z,1.25
2023-06-30T15:24:36.070Z,1.20
2023-06-30T15:27:04.160Z,1.10
2023-06-30T15:29:31.150Z,1.02
2023-06-30T15:31:58.224Z,1.00
2023-06-30T15:34:25.323Z,1.15
2023-06-30T15:36:52.297Z,1.40
2023-06-30T15:39:19.480Z,1.10
2023-06-30T15:41:46.676Z,1.30
2023-06-30T15:44:13.565Z,1.15
2023-06-30T15:46:41.067Z,0.95
2023-06-30T15:49:08.508Z,1.40
2023-06-30T15:51:36.175Z,1.10
2023-06-30T15:54:03.403Z,0.90
2023-06-30T15:56:30.946Z,1.30
2023-06-30T15:58:59.521Z,1.23
2023-06-30T16:01:26.917Z,1.17
2023-06-30T16:03:53.964Z,1.85
2023-06-30T16:06:21.189Z,0.80
2023-06-30T16:08:48.242Z,1.25
2023-06-30T16:11:15.561Z,1.27
2023-06-30T16:13:42.674Z,1.10
2023-06-30T16:16:13.012Z,1.23
2023-06-30T16:18:40.259Z,1.08
2023-06-30T16:21:07.524Z,1.17
2023-06-30T16:23:34.562Z,1.33
2023-06-30T16:26:01.645Z,1.58
2023-06-30T16:28:28.868Z,1.42
2023-06-30T16:30:56.074Z,1.65
2023-06-30T16:33:26.303Z,1.50
2023-06-30T16:35:53.331Z,1.40
2023-06-30T16:38:20.239Z,1.42
2023-06-30T16:40:47.401Z,1.50
2023-06-30T16:43:14.676Z,1.40
2023-06-30T16:45:41.799Z,1.67
2023-06-30T16:48:09.128Z,2.47
2023-06-30T16:50:36.201Z,1.52
2023-06-30T16:53:03.438Z,1.38
2023-06-30T16:55:30.559Z,1.65
2023-06-30T16:57:57.695Z,1.90
2023-06-30T17:00:24.746Z,1.40
2023-06-30T17:02:52.213Z,1.55
2023-06-30T17:05:19.599Z,1.60
2023-06-30T17:07:46.743Z,1.50
2023-06-30T17:10:13.923Z,1.40
2023-06-30T17:12:41.290Z,1.65
2023-06-30T17:15:10.895Z,1.55
2023-06-30T17:17:38.430Z,1.55
2023-06-30T17:20:06.326Z,1.92
2023-06-30T17:22:33.423Z,1.50
2023-06-30T17:25:04.795Z,2.00
2023-06-30T17:27:32.574Z,1.55
2023-06-30T17:30:02.122Z,1.60
2023-06-30T17:32:29.756Z,1.85
2023-06-30T17:34:56.855Z,1.70
2023-06-30T17:37:24.038Z,1.80
2023-06-30T17:39:51.293Z,1.70
2023-06-30T17:42:18.158Z,1.90
2023-06-30T17:44:45.155Z,1.63
2023-06-30T17:47:12.560Z,1.48
2023-06-30T17:49:39.733Z,1.50
2023-06-30T17:52:07.361Z,1.50
2023-06-30T17:54:34.365Z,1.80
2023-06-30T17:57:01.411Z,1.60
2023-06-30T17:59:31.824Z,1.63
2023-06-30T18:01:59.689Z,1.80
2023-06-30T18:04:26.963Z,1.80
2023-06-30T18:07:10.866Z,2.25
2023-06-30T18:09:40.700Z,1.80
2023-06-30T18:12:09.117Z,1.90
2023-06-30T18:14:37.129Z,1.65
2023-06-30T18:17:04.913Z,1.98
2023-06-30T18:19:32.559Z,1.83
2023-06-30T18:21:59.646Z,1.52
2023-06-30T18:24:26.938Z,1.80
2023-06-30T18:26:53.967Z,1.73
2023-06-30T18:29:24.863Z,1.90
2023-06-30T18:31:53.580Z,1.70
2023-06-30T18:34:21.763Z,1.90
2023-06-30T18:36:49.318Z,2.42
2023-06-30T18:39:19.504Z,2.05
2023-06-30T18:41:46.456Z,2.20
2023-06-30T18:44:13.468Z,2.08
2023-06-30T18:46:41.041Z,1.92
2023-06-30T18:49:11.733Z,2.13
2023-06-30T18:51:40.534Z,2.08
2023-06-30T18:54:08.064Z,1.80
2023-06-30T18:56:35.142Z,1.88
2023-06-30T18:59:02.875Z,1.85
2023-06-30T19:01:30.356Z,1.60
2023-06-30T19:03:57.784Z,1.58
2023-06-30T19:06:26.679Z,1.80
2023-06-30T19:08:54.742Z,1.80
2023-06-30T19:11:22.909Z,2.00
2023-06-30T19:13:50.407Z,2.05
2023-06-30T19:16:18.092Z,1.77
2023-06-30T19:18:45.178Z,1.80
2023-06-30T19:21:12.140Z,2.22
2023-06-30T19:23:41.824Z,2.33
2023-06-30T19:26:09.399Z,1.88
2023-06-30T19:28:36.441Z,2.05
2023-06-30T19:31:03.728Z,1.92
2023-06-30T19:33:31.772Z,2.03
2023-06-30T19:35:59.582Z,2.05
2023-06-30T19:38:27.881Z,1.80
2023-06-30T19:40:55.825Z,2.03
2023-06-30T19:43:23.369Z,1.90
2023-06-30T19:45:51.200Z,2.35
2023-06-30T19:48:20.143Z,2.20
2023-06-30T19:50:47.381Z,2.20
2023-06-30T19:53:14.541Z,2.40
2023-06-30T19:55:41.620Z,2.80
2023-06-30T19:58:10.316Z,2.08
2023-06-30T20:00:38.460Z,2.28
2023-06-30T20:03:05.831Z,2.22
2023-06-30T20:05:33.123Z,2.15
2023-06-30T20:08:00.208Z,2.33
2023-06-30T20:10:27.737Z,2.10
2023-06-30T20:12:54.874Z,2.30
2023-06-30T20:15:22.040Z,2.38
2023-06-30T20:17:48.949Z,2.42
2023-06-30T20:20:16.038Z,2.80
2023-06-30T20:22:43.536Z,2.60
2023-06-30T20:25:11.406Z,2.90
2023-06-30T20:27:39.712Z,2.70
2023-06-30T20:30:09.098Z,2.67
2023-06-30T20:32:36.578Z,2.47
2023-06-30T20:35:03.818Z,2.80
2023-06-30T20:37:31.090Z,2.20
2023-06-30T20:39:58.114Z,2.58
2023-06-30T20:42:25.070Z,2.67
2023-06-30T20:44:51.994Z,2.72
2023-06-30T20:47:19.149Z,2.58
2023-06-30T20:49:46.504Z,2.67
2023-06-30T20:52:18.958Z,2.40
2023-06-30T20:54:46.330Z,2.40
2023-06-30T20:57:13.434Z,2.60
2023-06-30T20:59:40.853Z,3.30
2023-06-30T21:02:08.162Z,2.40
2023-06-30T21:04:35.582Z,2.63
2023-06-30T21:07:02.854Z,2.90
2023-06-30T21:09:30.017Z,3.22
2023-06-30T21:11:57.228Z,2.90
2023-06-30T21:14:24.802Z,2.67
2023-06-30T21:16:51.972Z,2.38
2023-06-30T21:19:19.053Z,2.70
2023-06-30T21:21:46.257Z,2.72
2023-06-30T21:24:13.489Z,2.72
2023-06-30T21:26:43.095Z,2.22
2023-06-30T21:29:12.426Z,2.72
2023-06-30T21:31:39.685Z,3.08
2023-06-30T21:34:06.848Z,2.70
2023-06-30T21:36:36.553Z,3.42
2023-06-30T21:39:05.390Z,3.00
2023-06-30T21:41:32.516Z,2.83
2023-06-30T21:43:59.695Z,3.20
2023-06-30T21:46:26.705Z,2.78
2023-06-30T21:48:54.018Z,2.28
2023-06-30T21:51:21.118Z,2.70
2023-06-30T21:53:48.124Z,3.55
2023-06-30T21:56:15.035Z,3.10
2023-06-30T21:58:42.047Z,3.00
2023-06-30T22:01:09.155Z,2.90
2023-06-30T22:03:36.586Z,2.20
2023-06-30T22:06:03.903Z,2.90
2023-06-30T22:08:31.309Z,2.95
2023-06-30T22:10:59.282Z,2.78
2023-06-30T22:13:26.527Z,2.42
2023-06-30T22:15:53.727Z,2.70
2023-06-30T22:18:20.985Z,3.30
2023-06-30T22:20:48.187Z,2.85
2023-06-30T22:23:15.420Z,2.67
2023-06-30T22:25:42.535Z,2.78
2023-06-30T22:28:09.677Z,3.08
2023-06-30T22:30:36.746Z,2.65
2023-06-30T22:33:04.408Z,2.60
2023-06-30T22:35:31.548Z,2.85
2023-06-30T22:37:58.506Z,2.95
2023-06-30T22:40:25.708Z,2.83
2023-06-30T22:42:52.628Z,3.05
2023-06-30T22:45:19.802Z,2.67
2023-06-30T22:47:46.909Z,3.35
2023-06-30T22:50:14.039Z,3.35
2023-06-30T22:52:41.300Z,3.78
2023-06-30T22:55:09.294Z,3.47
2023-06-30T22:57:36.766Z,3.60
2023-06-30T23:00:05.721Z,3.70
2023-06-30T23:02:33.115Z,3.75
2023-06-30T23:05:00.155Z,3.70
2023-06-30T23:07:27.343Z,3.88
2023-06-30T23:09:54.343Z,3.17
2023-06-30T23:12:21.437Z,2.55
2023-06-30T23:14:48.545Z,3.70
2023-06-30T23:17:18.438Z,3.33
2023-06-30T23:19:49.233Z,3.03
2023-06-30T23:22:17.581Z,2.67
2023-06-30T23:24:48.220Z,3.00
2023-06-30T23:27:19.498Z,3.05
2023-06-30T23:29:50.530Z,3.05
2023-06-30T23:32:22.150Z,3.22
2023-06-30T23:34:49.489Z,3.03
2023-06-30T23:37:18.686Z,2.90
2023-06-30T23:39:51.461Z,3.10
2023-06-30T23:42:19.090Z,3.13
2023-06-30T23:44:46.347Z,2.67
2023-06-30T23:47:16.204Z,2.35
2023-06-30T23:49:43.822Z,3.03
2023-06-30T23:52:11.252Z,2.85
2023-06-30T23:54:38.702Z,2.63
2023-06-30T23:57:06.280Z,2.92
2023-06-30T23:59:33.434Z,2.85
